createdAt,value
2022-11-22T00:01:23.945Z,96761.75
2022-11-22T00:03:52.772Z,96769.13
2022-11-22T00:06:21.520Z,96767.03
2022-11-22T00:08:50.385Z,96766.22
2022-11-22T00:11:19.172Z,96763.66
2022-11-22T00:13:48.464Z,96765.91
2022-11-22T00:16:17.483Z,96761.38
2022-11-22T00:18:46.249Z,96765.41
2022-11-22T00:21:15.121Z,96764.78
2022-11-22T00:23:44.086Z,96762.84
2022-11-22T00:26:13.010Z,96768.47
2022-11-22T00:28:41.720Z,96776.19
2022-11-22T00:31:10.419Z,96780.69
2022-11-22T00:33:39.349Z,96783.94
2022-11-22T00:36:08.206Z,96777.34
2022-11-22T00:38:37.026Z,96777.00
2022-11-22T00:41:06.054Z,96779.41
2022-11-22T00:43:35.254Z,96781.16
2022-11-22T00:46:03.985Z,96781.47
2022-11-22T00:48:33.300Z,96774.38
2022-11-22T00:51:02.091Z,96780.97
2022-11-22T00:53:30.876Z,96773.41
2022-11-22T00:55:59.649Z,96785.75
2022-11-22T00:58:28.558Z,96776.13
2022-11-22T01:00:58.051Z,96784.00
2022-11-22T01:03:27.120Z,96772.72
2022-11-22T01:05:55.918Z,96785.56
2022-11-22T01:08:24.679Z,96779.91
2022-11-22T01:10:58.526Z,96766.31
2022-11-22T01:13:29.070Z,96769.38
2022-11-22T01:16:06.630Z,96772.25
2022-11-22T01:18:35.979Z,96766.59
2022-11-22T01:21:06.530Z,96778.81
2022-11-22T01:23:35.689Z,96768.94
2022-11-22T01:26:04.733Z,96780.38
2022-11-22T01:28:33.424Z,96769.91
2022-11-22T01:31:02.207Z,96773.25
2022-11-22T01:33:31.048Z,96782.09
2022-11-22T01:35:59.866Z,96769.66
2022-11-22T01:38:28.654Z,96777.81
2022-11-22T01:40:57.516Z,96775.97
2022-11-22T01:43:28.652Z,96784.75
2022-11-22T01:46:08.851Z,96773.75
2022-11-22T01:48:53.557Z,96782.38
2022-11-22T01:51:29.448Z,96782.81
2022-11-22T01:54:02.975Z,96777.13
2022-11-22T01:56:33.259Z,96769.84
2022-11-22T01:59:07.995Z,96769.59
2022-11-22T02:01:38.176Z,96776.59
2022-11-22T02:04:09.873Z,96770.81
2022-11-22T02:07:09.263Z,96777.78
2022-11-22T02:09:40.059Z,96776.88
2022-11-22T02:12:10.792Z,96768.75
2022-11-22T02:14:41.122Z,96761.09
2022-11-22T02:17:09.811Z,96755.13
2022-11-22T02:19:44.607Z,96745.44
2022-11-22T02:22:37.230Z,96755.63
2022-11-22T02:25:27.596Z,96757.72
2022-11-22T02:27:56.605Z,96751.47
2022-11-22T02:30:25.720Z,96751.53
2022-11-22T02:32:54.414Z,96748.63
2022-11-22T02:35:24.875Z,96749.84
2022-11-22T02:37:58.170Z,96743.16
2022-11-22T02:40:30.332Z,96744.22
2022-11-22T02:43:21.518Z,96739.69
2022-11-22T02:45:50.576Z,96730.44
2022-11-22T02:48:19.855Z,96726.28
2022-11-22T02:50:48.702Z,96732.66
2022-11-22T02:53:17.578Z,96733.03
2022-11-22T02:55:46.329Z,96733.44
2022-11-22T02:58:15.093Z,96736.81
2022-11-22T03:00:44.922Z,96732.81
2022-11-22T03:03:13.956Z,96727.03
2022-11-22T03:05:42.683Z,96728.63
2022-11-22T03:08:11.642Z,96736.19
2022-11-22T03:10:40.332Z,96731.41
2022-11-22T03:13:09.119Z,96721.28
2022-11-22T03:15:37.869Z,96719.31
2022-11-22T03:18:06.707Z,96708.78
2022-11-22T03:20:35.583Z,96713.41
2022-11-22T03:23:04.294Z,96714.44
2022-11-22T03:25:33.067Z,96717.25
2022-11-22T03:28:01.826Z,96715.69
2022-11-22T03:30:30.700Z,96706.16
2022-11-22T03:32:59.751Z,96706.13
2022-11-22T03:35:28.701Z,96702.97
2022-11-22T03:37:57.481Z,96697.19
2022-11-22T03:40:26.220Z,96698.16
2022-11-22T03:42:54.967Z,96696.19
2022-11-22T03:45:23.723Z,96691.59
2022-11-22T03:47:52.429Z,96686.19
2022-11-22T03:50:21.223Z,96687.19
2022-11-22T03:52:50.044Z,96679.78
2022-11-22T03:55:18.850Z,96678.56
2022-11-22T03:57:47.749Z,96680.47
2022-11-22T04:00:18.302Z,96677.41
2022-11-22T04:02:47.214Z,96670.13
2022-11-22T04:05:16.580Z,96672.28
2022-11-22T04:07:45.470Z,96672.41
2022-11-22T04:10:16.486Z,96669.72
2022-11-22T04:12:47.932Z,96662.84
2022-11-22T04:15:16.806Z,96651.56
2022-11-22T04:17:46.375Z,96645.44
2022-11-22T04:20:39.445Z,96648.44
2022-11-22T04:23:16.900Z,96637.25
2022-11-22T04:25:49.042Z,96638.06
2022-11-22T04:28:20.079Z,96631.81
2022-11-22T04:31:08.455Z,96620.56
2022-11-22T04:33:37.767Z,96621.66
2022-11-22T04:36:11.868Z,96612.63
2022-11-22T04:38:41.996Z,96605.53
2022-11-22T04:41:10.779Z,96611.91
2022-11-22T04:44:08.907Z,96594.63
2022-11-22T04:46:37.749Z,96596.88
2022-11-22T04:49:06.552Z,96595.06
2022-11-22T04:51:53.781Z,96599.13
2022-11-22T04:54:22.545Z,96584.16
2022-11-22T04:56:51.340Z,96584.13
2022-11-22T04:59:20.140Z,96582.59
2022-11-22T05:01:49.724Z,96576.50
2022-11-22T05:04:18.690Z,96572.59
2022-11-22T05:06:47.621Z,96570.91
2022-11-22T05:09:17.211Z,96571.81
2022-11-22T05:11:45.931Z,96562.09
2022-11-22T05:14:14.668Z,96554.63
2022-11-22T05:16:43.539Z,96550.69
2022-11-22T05:19:12.549Z,96546.34
2022-11-22T05:21:41.306Z,96546.56
2022-11-22T05:24:10.205Z,96548.63
2022-11-22T05:26:39.033Z,96536.50
2022-11-22T05:29:09.962Z,96534.94
2022-11-22T05:31:40.526Z,96537.44
2022-11-22T05:34:09.328Z,96536.28
2022-11-22T05:36:38.142Z,96521.88
2022-11-22T05:39:06.943Z,96521.97
2022-11-22T05:41:35.724Z,96525.13
2022-11-22T05:44:04.553Z,96517.16
2022-11-22T05:46:33.315Z,96509.31
2022-11-22T05:49:02.240Z,96509.97
2022-11-22T05:51:34.490Z,96510.75
2022-11-22T05:54:04.564Z,96513.50
2022-11-22T05:56:33.329Z,96490.91
2022-11-22T05:59:02.107Z,96485.41
2022-11-22T06:01:31.867Z,96486.00
2022-11-22T06:04:00.862Z,96482.56
2022-11-22T06:06:29.629Z,96478.25
2022-11-22T06:09:00.131Z,96481.94
2022-11-22T06:11:29.257Z,96466.84
2022-11-22T06:14:00.690Z,96469.69
2022-11-22T06:16:29.825Z,96474.28
2022-11-22T06:18:58.649Z,96457.19
2022-11-22T06:21:29.137Z,96447.72
2022-11-22T06:23:58.588Z,96440.53
2022-11-22T06:26:28.048Z,96443.00
2022-11-22T06:28:56.837Z,96450.72
2022-11-22T06:31:27.425Z,96442.91
2022-11-22T06:34:00.207Z,96433.53
2022-11-22T06:36:31.931Z,96439.13
2022-11-22T06:39:01.250Z,96434.81
2022-11-22T06:41:34.546Z,96427.75
2022-11-22T06:44:08.678Z,96425.50
2022-11-22T06:46:38.350Z,96419.19
2022-11-22T06:49:07.224Z,96417.38
2022-11-22T06:51:36.080Z,96412.47
2022-11-22T06:54:05.003Z,96415.59
2022-11-22T06:56:38.364Z,96410.06
2022-11-22T06:59:08.076Z,96403.81
2022-11-22T07:01:38.191Z,96401.19
2022-11-22T07:04:07.360Z,96392.44
2022-11-22T07:06:39.096Z,96400.25
2022-11-22T07:09:10.770Z,96394.00
2022-11-22T07:11:41.028Z,96377.38
2022-11-22T07:14:09.939Z,96373.38
2022-11-22T07:16:39.443Z,96370.09
2022-11-22T07:19:08.635Z,96368.25
2022-11-22T07:21:40.493Z,96364.72
2022-11-22T07:24:09.599Z,96364.16
2022-11-22T07:26:38.595Z,96361.44
2022-11-22T07:29:07.556Z,96367.34
2022-11-22T07:31:36.559Z,96353.22
2022-11-22T07:34:05.420Z,96349.03
2022-11-22T07:36:34.196Z,96351.28
2022-11-22T07:39:04.309Z,96350.25
2022-11-22T07:41:33.361Z,96347.78
2022-11-22T07:44:02.203Z,96356.88
2022-11-22T07:46:32.035Z,96348.75
2022-11-22T07:49:02.523Z,96350.69
2022-11-22T07:51:31.760Z,96337.66
2022-11-22T07:54:00.636Z,96330.06
2022-11-22T07:56:29.462Z,96332.63
2022-11-22T07:58:58.357Z,96332.03
2022-11-22T08:01:27.810Z,96335.16
2022-11-22T08:03:57.540Z,96323.72
2022-11-22T08:06:26.681Z,96324.41
2022-11-22T08:09:01.585Z,96311.25
2022-11-22T08:11:30.993Z,96319.38
2022-11-22T08:13:59.911Z,96320.41
2022-11-22T08:16:28.789Z,96319.13
2022-11-22T08:18:58.722Z,96313.44
2022-11-22T08:21:27.442Z,96306.88
2022-11-22T08:23:59.319Z,96306.28
2022-11-22T08:26:28.600Z,96303.75
2022-11-22T08:28:57.301Z,96294.09
2022-11-22T08:31:27.782Z,96293.50
2022-11-22T08:33:56.795Z,96301.97
2022-11-22T08:36:25.537Z,96291.25
2022-11-22T08:38:54.671Z,96304.28
2022-11-22T08:41:24.229Z,96289.69
2022-11-22T08:43:54.186Z,96286.06
2022-11-22T08:46:22.936Z,96282.31
2022-11-22T08:48:53.634Z,96288.75
2022-11-22T08:51:22.473Z,96276.53
2022-11-22T08:53:51.196Z,96266.22
2022-11-22T08:56:20.178Z,96282.38
2022-11-22T08:58:49.017Z,96259.06
2022-11-22T09:01:19.864Z,96271.34
2022-11-22T09:03:48.905Z,96260.34
2022-11-22T09:11:59.206Z,96241.06
2022-11-22T09:14:27.967Z,96246.63
2022-11-22T09:16:56.728Z,96236.00
2022-11-22T09:19:26.149Z,96228.22
2022-11-22T09:21:54.879Z,96226.63
2022-11-22T09:24:23.708Z,96211.13
2022-11-22T09:26:52.529Z,96218.25
2022-11-22T09:29:21.363Z,96216.66
2022-11-22T09:31:50.214Z,96215.44
2022-11-22T09:34:19.067Z,96205.25
2022-11-22T09:36:47.851Z,96202.44
2022-11-22T09:39:16.590Z,96216.22
2022-11-22T09:41:48.291Z,96215.34
2022-11-22T09:44:26.176Z,96196.06
2022-11-22T09:47:04.624Z,96202.06
2022-11-22T09:49:52.057Z,96194.03
2022-11-22T09:52:28.083Z,96189.19
2022-11-22T09:55:07.909Z,96179.69
2022-11-22T09:57:50.537Z,96178.47
2022-11-22T10:00:28.652Z,96176.50
2022-11-22T10:03:19.059Z,96171.44
2022-11-22T10:05:52.745Z,96160.16
2022-11-22T10:08:46.423Z,96167.28
2022-11-22T10:11:52.701Z,96157.16
2022-11-22T10:14:42.629Z,96158.63
2022-11-22T10:17:20.561Z,96160.56
2022-11-22T10:20:02.603Z,96153.78
2022-11-22T10:22:33.052Z,96150.94
2022-11-22T10:25:10.327Z,96154.91
2022-11-22T10:27:41.885Z,96148.09
2022-11-22T10:30:21.886Z,96132.94
2022-11-22T10:32:59.601Z,96142.03
2022-11-22T10:35:46.421Z,96136.94
2022-11-22T10:38:44.808Z,96134.09
2022-11-22T10:41:55.755Z,96130.13
2022-11-22T10:44:32.151Z,96126.41
2022-11-22T10:47:12.134Z,96120.38
2022-11-22T10:50:07.023Z,96115.19
2022-11-22T10:53:00.350Z,96118.81
2022-11-22T10:55:50.465Z,96107.59
2022-11-22T10:58:29.479Z,96094.03
2022-11-22T11:01:16.684Z,96089.81
2022-11-22T11:03:48.715Z,96087.81
2022-11-22T11:06:37.504Z,96085.19
2022-11-22T11:10:08.990Z,96084.63
2022-11-22T11:12:43.975Z,96080.00
2022-11-22T11:15:23.643Z,96076.03
2022-11-22T11:18:01.711Z,96075.81
2022-11-22T11:20:37.135Z,96067.63
2022-11-22T11:23:15.201Z,96062.22
2022-11-22T11:25:49.673Z,96070.38
2022-11-22T11:28:27.570Z,96059.38
2022-11-22T11:30:57.778Z,96068.66
2022-11-22T11:33:31.911Z,96061.88
2022-11-22T11:36:07.847Z,96057.25
2022-11-22T11:38:49.064Z,96047.84
2022-11-22T11:41:30.778Z,96048.19
2022-11-22T11:44:02.174Z,96041.03
2022-11-22T11:46:46.089Z,96044.63
2022-11-22T11:49:35.160Z,96034.88
2022-11-22T11:52:09.289Z,96029.31
2022-11-22T11:54:45.417Z,96029.41
2022-11-22T11:57:26.375Z,96024.78
2022-11-22T11:59:57.519Z,96009.00
2022-11-22T12:02:38.996Z,96010.44
2022-11-22T12:05:25.200Z,96011.00
2022-11-22T12:07:54.238Z,96004.56
2022-11-22T12:10:30.984Z,95990.59
2022-11-22T12:13:06.829Z,95994.13
2022-11-22T12:15:35.473Z,95990.03
2022-11-22T12:18:32.236Z,95979.38
2022-11-22T12:21:20.269Z,95969.97
2022-11-22T12:24:48.425Z,95978.41
2022-11-22T12:27:15.371Z,95968.09
2022-11-22T12:29:46.359Z,95968.19
2022-11-22T12:32:39.749Z,95964.97
2022-11-22T12:35:21.055Z,95965.59
2022-11-22T12:38:09.884Z,95950.81
2022-11-22T12:40:46.445Z,95953.84
2022-11-22T12:43:47.026Z,95949.41
2022-11-22T12:46:26.548Z,95948.56
2022-11-22T12:49:04.139Z,95942.59
2022-11-22T12:51:55.243Z,95959.13
2022-11-22T12:54:33.353Z,95938.81
2022-11-22T12:57:53.787Z,95926.38
2022-11-22T13:00:28.849Z,95936.59
2022-11-22T13:03:14.456Z,95922.59
2022-11-22T13:05:59.416Z,95918.59
2022-11-22T13:08:53.271Z,95915.28
2022-11-22T13:11:41.618Z,95914.16
2022-11-22T13:14:21.967Z,95905.91
2022-11-22T13:16:54.296Z,95902.53
2022-11-22T13:19:26.821Z,95902.56
2022-11-22T13:22:09.400Z,95889.94
2022-11-22T13:25:05.323Z,95893.63
2022-11-22T13:27:44.896Z,95893.50
2022-11-22T13:30:26.389Z,95890.97
2022-11-22T13:32:58.535Z,95880.31
2022-11-22T13:35:34.098Z,95875.63
2022-11-22T13:38:19.295Z,95862.03
2022-11-22T13:40:52.105Z,95865.22
2022-11-22T13:43:22.721Z,95873.38
2022-11-22T13:45:58.858Z,95881.00
2022-11-22T13:48:43.012Z,95863.50
2022-11-22T13:51:14.195Z,95871.06
2022-11-22T13:53:48.501Z,95858.50
2022-11-22T13:56:17.423Z,95849.88
2022-11-22T13:58:51.469Z,95858.00
2022-11-22T14:01:39.023Z,95855.59
2022-11-22T14:04:17.366Z,95844.66
2022-11-22T14:06:58.520Z,95841.78
2022-11-22T14:09:53.711Z,95846.47
2022-11-22T14:12:34.588Z,95838.84
2022-11-22T14:15:21.489Z,95828.38
2022-11-22T14:18:27.173Z,95823.94
2022-11-22T14:21:15.059Z,95808.19
2022-11-22T14:24:14.514Z,95808.19
2022-11-22T14:27:10.808Z,95801.63
2022-11-22T14:29:53.500Z,95785.63
2022-11-22T14:32:25.715Z,95787.72
2022-11-22T14:35:06.873Z,95778.56
2022-11-22T14:37:45.775Z,95772.50
2022-11-22T14:40:31.453Z,95772.50
2022-11-22T14:43:06.948Z,95764.34
2022-11-22T14:45:44.261Z,95771.59
2022-11-22T14:48:23.828Z,95756.59
2022-11-22T14:51:00.481Z,95759.53
2022-11-22T14:53:52.032Z,95729.84
2022-11-22T14:56:30.081Z,95731.97
2022-11-22T14:59:01.910Z,95737.56
2022-11-22T15:01:58.714Z,95722.13
2022-11-22T15:09:20.510Z,95727.09
2022-11-22T15:09:21.464Z,95716.38
2022-11-22T15:11:06.144Z,95732.09
2022-11-22T15:13:44.638Z,95717.44
2022-11-22T15:57:54.745Z,95665.78
2022-11-22T16:00:28.111Z,95637.53
2022-11-22T16:03:02.680Z,95649.78
2022-11-22T16:06:04.655Z,95648.22
2022-11-22T16:08:26.602Z,95638.75
2022-11-22T16:11:00.016Z,95637.97
2022-11-22T16:13:34.662Z,95632.47
2022-11-22T16:16:12.851Z,95612.59
2022-11-22T16:18:43.658Z,95610.50
2022-11-22T16:21:12.485Z,95615.97
2022-11-22T16:23:42.610Z,95608.91
2022-11-22T16:26:30.082Z,95613.09
2022-11-22T16:29:29.963Z,95593.78
2022-11-22T16:32:13.061Z,95595.88
2022-11-22T16:34:46.910Z,95583.03
2022-11-22T16:37:34.654Z,95590.63
2022-11-22T16:40:07.748Z,95590.63
2022-11-22T16:42:41.272Z,95585.44
2022-11-22T16:45:22.546Z,95583.34
2022-11-22T16:48:03.773Z,95584.13
2022-11-22T16:50:40.534Z,95601.94
2022-11-22T16:53:15.488Z,95593.84
2022-11-22T16:55:44.741Z,95577.09
2022-11-22T16:58:22.701Z,95579.97
2022-11-22T17:00:54.690Z,95577.84
2022-11-22T17:03:26.872Z,95566.06
2022-11-22T17:05:55.994Z,95562.69
2022-11-22T17:08:24.879Z,95566.06
2022-11-22T17:10:53.900Z,95556.41
2022-11-22T17:13:28.626Z,95545.41
2022-11-22T17:15:58.279Z,95545.41
2022-11-22T17:18:27.181Z,95548.00
2022-11-22T17:20:56.151Z,95537.03
2022-11-22T17:23:39.284Z,95528.38
2022-11-22T17:26:10.215Z,95531.78
2022-11-22T17:28:39.116Z,95528.66
2022-11-22T17:31:16.150Z,95535.97
2022-11-22T17:33:45.354Z,95535.69
2022-11-22T17:36:35.000Z,95533.88
2022-11-22T17:39:07.929Z,95535.19
2022-11-22T17:41:37.070Z,95537.00
2022-11-22T17:44:06.597Z,95527.31
2022-11-22T17:46:40.385Z,95529.16
2022-11-22T17:49:15.359Z,95516.84
2022-11-22T17:51:45.115Z,95530.47
2022-11-22T17:54:14.002Z,95527.59
2022-11-22T17:56:42.843Z,95527.88
2022-11-22T17:59:11.705Z,95524.72
2022-11-22T18:01:41.395Z,95508.50
2022-11-22T18:04:10.653Z,95509.28
2022-11-22T18:06:39.469Z,95501.69
2022-11-22T18:09:08.306Z,95506.16
2022-11-22T18:11:37.158Z,95495.41
2022-11-22T18:14:06.072Z,95491.75
2022-11-22T18:16:34.984Z,95494.63
2022-11-22T18:19:03.936Z,95494.34
2022-11-22T18:21:33.951Z,95491.22
2022-11-22T18:24:03.137Z,95488.84
2022-11-22T18:26:40.761Z,95482.31
2022-11-22T18:32:01.882Z,95474.75
2022-11-22T18:34:31.245Z,95468.72
2022-11-22T18:37:03.463Z,95471.09
2022-11-22T18:39:38.524Z,95476.56
2022-11-22T18:42:12.756Z,95467.69
2022-11-22T18:44:41.812Z,95462.19
2022-11-22T18:47:10.812Z,95459.84
2022-11-22T18:49:39.742Z,95452.00
2022-11-22T18:52:10.711Z,95449.88
2022-11-22T18:54:42.280Z,95440.75
2022-11-22T18:57:11.152Z,95441.78
2022-11-22T18:59:40.437Z,95444.91
2022-11-22T19:02:10.115Z,95431.34
2022-11-22T19:04:39.368Z,95430.25
2022-11-22T19:07:08.258Z,95427.41
2022-11-22T19:09:37.193Z,95415.09
2022-11-22T19:12:06.216Z,95412.22
2022-11-22T19:14:35.764Z,95397.84
2022-11-22T19:17:05.005Z,95402.81
2022-11-22T19:19:34.174Z,95392.31
2022-11-22T19:22:03.975Z,95399.63
2022-11-22T19:24:33.150Z,95401.22
2022-11-22T19:27:02.510Z,95395.44
2022-11-22T19:29:31.630Z,95393.88
2022-11-22T19:32:00.629Z,95383.66
2022-11-22T19:34:30.559Z,95388.91
2022-11-22T19:37:00.904Z,95377.63
2022-11-22T19:39:29.942Z,95379.47
2022-11-22T19:41:59.002Z,95368.47
2022-11-22T19:44:27.815Z,95374.72
2022-11-22T19:46:56.648Z,95368.72
2022-11-22T19:49:26.057Z,95357.97
2022-11-22T19:51:55.010Z,95350.63
2022-11-22T19:54:23.867Z,95357.69
2022-11-22T19:56:52.835Z,95349.28
2022-11-22T19:59:21.765Z,95347.94
2022-11-22T20:01:51.319Z,95341.63
2022-11-22T20:04:20.308Z,95330.88
2022-11-22T20:06:50.534Z,95334.50
2022-11-22T20:09:19.921Z,95333.72
2022-11-22T20:11:48.911Z,95328.72
2022-11-22T20:14:17.723Z,95323.16
2022-11-22T20:16:46.545Z,95303.22
2022-11-22T20:19:16.270Z,95303.47
2022-11-22T20:21:45.458Z,95303.44
2022-11-22T20:24:14.287Z,95303.94
2022-11-22T20:26:44.362Z,95292.38
2022-11-22T20:29:14.799Z,95296.81
2022-11-22T20:31:43.987Z,95296.25
2022-11-22T20:34:14.340Z,95285.28
2022-11-22T20:36:43.535Z,95288.69
2022-11-22T20:39:12.614Z,95272.94
2022-11-22T20:41:41.633Z,95268.47
2022-11-22T20:44:14.698Z,95260.84
2022-11-22T20:46:43.720Z,95256.16
2022-11-22T20:49:13.326Z,95250.91
2022-11-22T20:51:43.304Z,95246.47
2022-11-22T20:54:13.604Z,95245.22
2022-11-22T20:56:42.453Z,95242.34
2022-11-22T20:59:11.425Z,95256.22
2022-11-22T21:01:40.943Z,95247.56
2022-11-22T21:04:09.989Z,95235.03
2022-11-22T21:06:38.844Z,95236.25
2022-11-22T21:09:07.668Z,95222.22
2022-11-22T21:11:36.615Z,95226.38
2022-11-22T21:14:05.534Z,95225.03
2022-11-22T21:16:34.266Z,95218.19
2022-11-22T21:19:07.351Z,95214.88
2022-11-22T21:21:37.726Z,95211.25
2022-11-22T21:24:07.449Z,95228.56
2022-11-22T21:26:36.160Z,95202.06
2022-11-22T21:29:14.509Z,95204.94
2022-11-22T21:31:45.014Z,95204.66
2022-11-22T21:34:13.886Z,95205.44
2022-11-22T21:36:42.766Z,95204.66
2022-11-22T21:39:11.584Z,95199.97
2022-11-22T21:41:41.207Z,95195.78
2022-11-22T21:44:11.359Z,95199.72
2022-11-22T21:46:40.275Z,95193.72
2022-11-22T21:49:09.032Z,95190.28
2022-11-22T21:51:37.831Z,95188.94
2022-11-22T21:54:07.285Z,95187.66
2022-11-22T21:56:36.600Z,95185.28
2022-11-22T21:59:05.921Z,95185.47
2022-11-22T22:01:35.271Z,95185.47
2022-11-22T22:04:05.103Z,95170.75
2022-11-22T22:06:33.947Z,95162.38
2022-11-22T22:09:02.923Z,95168.13
2022-11-22T22:11:31.768Z,95150.38
2022-11-22T22:14:00.531Z,95153.78
2022-11-22T22:16:29.324Z,95152.66
2022-11-22T22:18:58.135Z,95147.16
2022-11-22T22:21:27.008Z,95152.63
2022-11-22T22:23:55.744Z,95139.84
2022-11-22T22:26:24.524Z,95149.00
2022-11-22T22:28:54.119Z,95138.75
2022-11-22T22:31:24.433Z,95142.19
2022-11-22T22:33:57.762Z,95141.69
2022-11-22T22:36:27.848Z,95150.56
2022-11-22T22:38:56.611Z,95152.41
2022-11-22T22:41:25.337Z,95143.75
2022-11-22T22:43:54.092Z,95149.50
2022-11-22T22:46:25.436Z,95132.22
2022-11-22T22:48:57.605Z,95137.69
2022-11-22T22:51:33.112Z,95145.84
2022-11-22T22:54:02.718Z,95141.97
2022-11-22T22:56:32.678Z,95127.78
2022-11-22T22:59:01.511Z,95130.41
2022-11-22T23:01:32.490Z,95128.19
2022-11-22T23:04:03.234Z,95131.34
2022-11-22T23:06:37.211Z,95124.03
2022-11-22T23:09:08.488Z,95129.44
2022-11-22T23:11:56.584Z,95119.66
2022-11-22T23:14:27.894Z,95122.28
2022-11-22T23:16:58.290Z,95113.72
2022-11-22T23:19:28.576Z,95112.19
2022-11-22T23:21:57.529Z,95110.09
2022-11-22T23:24:26.366Z,95101.22
2022-11-22T23:26:55.228Z,95100.41
2022-11-22T23:29:23.947Z,95099.88
2022-11-22T23:31:53.316Z,95089.13
2022-11-22T23:34:22.596Z,95093.03
2022-11-22T23:36:51.369Z,95096.47
2022-11-22T23:39:20.403Z,95084.91
2022-11-22T23:41:49.693Z,95086.59
2022-11-22T23:44:18.703Z,95090.16
2022-11-22T23:46:47.555Z,95077.78
2022-11-22T23:49:16.314Z,95086.03
2022-11-22T23:51:46.819Z,95082.06
2022-11-22T23:54:15.777Z,95078.69
2022-11-22T23:56:44.745Z,95072.25
2022-11-22T23:59:14.066Z,95082.75
